Time;durP1;ratioP1;P1;durP2;ratioP2;P2;SDS_P1;SDS_P2;PMS_P1;PMS_P2;Temp;Humidity;BMP_temperature;BMP_pressure;BME280_temperature;BME280_humidity;BME280_pressure;Samples;Min_cycle;Max_cycle;Signal;HPM_P1;HPM_P2
2022/05/18 00:00:29;;;;;;;14.65;6.85;;;19.30;99.90;;;;;;5046327;28;20489;-49
2022/05/18 00:02:57;;;;;;;8.32;5.57;;;19.20;99.90;;;;;;5030122;28;20017;-36
2022/05/18 00:05:23;;;;;;;8.60;6.00;;;19.10;99.90;;;;;;5039112;28;20032;-30
2022/05/18 00:07:49;;;;;;;13.50;5.93;;;19.10;99.90;;;;;;5038224;28;20017;-35
2022/05/18 00:10:15;;;;;;;13.43;6.75;;;19.10;99.90;;;;;;5037211;28;20029;-29
2022/05/18 00:12:48;;;;;;;9.48;5.95;;;19.10;99.90;;;;;;5041329;28;20034;-30
2022/05/18 00:15:16;;;;;;;13.32;6.47;;;19.10;99.90;;;;;;5032504;28;20080;-38
2022/05/18 00:17:42;;;;;;;13.50;6.35;;;19.00;99.90;;;;;;5035517;28;20029;-30
2022/05/18 00:20:09;;;;;;;11.20;6.70;;;19.00;99.90;;;;;;5044507;28;20025;-34
2022/05/18 00:22:43;;;;;;;12.35;7.07;;;19.00;99.90;;;;;;5046941;28;20026;-45
2022/05/18 00:25:09;;;;;;;14.60;6.65;;;18.90;99.90;;;;;;5040003;28;20033;-37
2022/05/18 00:27:34;;;;;;;14.70;6.60;;;18.90;99.90;;;;;;5051599;28;20041;-37
2022/05/18 00:30:00;;;;;;;18.20;6.60;;;18.90;99.90;;;;;;5043543;28;20048;-36
2022/05/18 00:32:26;;;;;;;10.73;6.70;;;18.90;99.90;;;;;;5043664;28;20449;-36
2022/05/18 00:34:51;;;;;;;11.68;7.00;;;18.90;99.90;;;;;;5036205;28;20030;-41
2022/05/18 00:37:17;;;;;;;10.25;6.38;;;18.90;99.90;;;;;;5049765;28;20519;-38
2022/05/18 00:39:43;;;;;;;11.98;6.80;;;18.80;99.90;;;;;;5045798;28;20385;-36
2022/05/18 00:42:25;;;;;;;9.77;6.93;;;18.80;99.90;;;;;;5035768;28;20474;-36
2022/05/18 00:44:51;;;;;;;14.07;6.35;;;18.70;99.90;;;;;;5035542;28;20777;-37
2022/05/18 00:47:16;;;;;;;7.95;5.82;;;18.70;99.90;;;;;;5033422;28;20025;-39
2022/05/18 00:49:47;;;;;;;9.30;6.25;;;18.60;99.90;;;;;;5037111;28;20041;-36
2022/05/18 00:52:14;;;;;;;14.02;7.20;;;18.60;99.90;;;;;;5043726;28;20466;-37
2022/05/18 00:54:41;;;;;;;15.23;7.20;;;18.60;99.90;;;;;;5053895;28;20512;-37
2022/05/18 00:57:26;;;;;;;12.13;6.97;;;18.60;99.90;;;;;;5034396;28;20727;-36
2022/05/18 00:59:57;;;;;;;10.73;6.57;;;18.60;99.90;;;;;;5034769;28;20108;-37
2022/05/18 01:02:27;;;;;;;11.27;7.20;;;18.50;99.90;;;;;;5035191;28;20026;-51
2022/05/18 01:04:58;;;;;;;11.73;7.07;;;18.40;99.90;;;;;;5036717;28;20064;-35
2022/05/18 01:07:28;;;;;;;17.55;8.50;;;18.40;99.90;;;;;;5037851;28;20029;-37
2022/05/18 01:09:54;;;;;;;15.88;7.63;;;18.40;99.90;;;;;;5047339;28;20021;-37
2022/05/18 01:12:22;;;;;;;12.13;7.00;;;18.30;99.90;;;;;;5033142;28;21237;-29
2022/05/18 01:14:56;;;;;;;13.90;7.50;;;18.30;99.90;;;;;;5034720;28;20505;-31
2022/05/18 01:17:25;;;;;;;16.15;8.80;;;18.30;99.90;;;;;;5033866;28;20113;-29
2022/05/18 01:19:55;;;;;;;14.73;7.65;;;18.30;99.90;;;;;;5037042;28;20547;-33
2022/05/18 01:22:23;;;;;;;15.63;8.68;;;18.30;99.90;;;;;;5048140;28;20036;-31
2022/05/18 01:25:17;;;;;;;14.60;9.18;;;18.30;99.90;;;;;;5037386;28;20056;-28
2022/05/18 01:27:43;;;;;;;15.57;8.52;;;18.30;99.90;;;;;;5032235;28;20040;-28
2022/05/18 01:30:09;;;;;;;15.07;9.70;;;18.30;99.90;;;;;;5042903;28;20049;-30
2022/05/18 01:32:45;;;;;;;17.70;10.82;;;18.30;99.90;;;;;;5054597;28;20033;-33
2022/05/18 01:35:19;;;;;;;21.88;10.65;;;18.40;99.90;;;;;;5049530;28;20026;-33
2022/05/18 01:37:44;;;;;;;17.35;10.10;;;18.40;99.90;;;;;;5037120;28;20128;-39
2022/05/18 01:40:17;;;;;;;23.58;10.68;;;18.40;99.90;;;;;;5041314;28;20123;-28
2022/05/18 01:42:47;;;;;;;17.23;9.55;;;18.50;99.90;;;;;;5052961;28;20025;-31
2022/05/18 01:45:13;;;;;;;17.77;10.25;;;18.50;99.90;;;;;;5052613;28;20397;-29
2022/05/18 01:47:40;;;;;;;23.70;11.13;;;18.50;99.90;;;;;;5040920;28;20045;-31
2022/05/18 01:50:12;;;;;;;15.02;10.05;;;18.50;99.90;;;;;;5033837;28;20140;-32
2022/05/18 01:52:38;;;;;;;18.02;9.35;;;18.60;99.90;;;;;;5033686;28;20112;-40
2022/05/18 01:55:04;;;;;;;14.80;9.77;;;18.50;99.90;;;;;;5045952;28;20124;-30
2022/05/18 01:57:32;;;;;;;21.00;10.13;;;18.40;99.90;;;;;;5044938;28;20041;-32
2022/05/18 01:59:57;;;;;;;21.65;10.85;;;18.40;99.90;;;;;;5042248;28;20024;-32
2022/05/18 02:02:24;;;;;;;20.92;10.10;;;18.40;99.90;;;;;;5040495;28;20481;-30
2022/05/18 02:04:50;;;;;;;16.90;10.38;;;18.50;99.90;;;;;;5034927;28;20414;-36
2022/05/18 02:07:15;;;;;;;18.85;10.80;;;18.50;99.90;;;;;;5049447;28;20104;-33
2022/05/18 02:09:41;;;;;;;22.42;11.18;;;18.50;99.90;;;;;;5042423;28;20021;-35
2022/05/18 02:12:10;;;;;;;16.60;10.52;;;18.50;99.90;;;;;;5051500;28;20120;-36
2022/05/18 02:14:36;;;;;;;18.20;10.20;;;18.40;99.90;;;;;;5048743;28;20469;-34
2022/05/18 02:17:02;;;;;;;25.75;11.20;;;18.40;99.90;;;;;;5045351;28;20158;-37
2022/05/18 02:19:28;;;;;;;21.90;11.00;;;18.30;99.90;;;;;;5035784;28;20037;-36
2022/05/18 02:21:53;;;;;;;21.42;10.70;;;18.30;99.90;;;;;;5046705;28;20021;-37
2022/05/18 02:24:19;;;;;;;16.15;9.35;;;18.30;99.90;;;;;;5046125;28;20393;-62
2022/05/18 02:26:45;;;;;;;20.95;10.32;;;18.30;99.90;;;;;;5035872;28;20041;-36
2022/05/18 02:29:11;;;;;;;18.73;9.98;;;18.30;99.90;;;;;;5042993;28;20021;-36
2022/05/18 02:31:37;;;;;;;14.35;9.35;;;18.30;99.90;;;;;;5052827;28;20562;-30
2022/05/18 02:34:02;;;;;;;16.90;9.52;;;18.30;99.90;;;;;;5052646;28;20072;-28
2022/05/18 02:36:28;;;;;;;18.45;9.13;;;18.30;99.90;;;;;;5052050;28;20113;-31
2022/05/18 02:38:54;;;;;;;22.65;10.95;;;18.20;99.90;;;;;;5034876;28;20071;-46
2022/05/18 02:41:19;;;;;;;14.27;10.00;;;18.20;99.90;;;;;;5053255;28;20108;-38
2022/05/18 02:43:45;;;;;;;22.52;9.85;;;18.20;99.90;;;;;;5052560;28;20025;-35
2022/05/18 02:46:14;;;;;;;19.88;11.27;;;18.20;99.90;;;;;;5042283;28;20032;-37
2022/05/18 02:48:41;;;;;;;21.67;11.65;;;18.10;99.90;;;;;;5043505;28;20013;-42
2022/05/18 02:51:08;;;;;;;30.58;10.45;;;18.10;99.90;;;;;;5044684;28;20053;-43
2022/05/18 02:53:34;;;;;;;20.30;9.67;;;18.00;99.90;;;;;;5042658;28;20537;-36
2022/05/18 02:56:08;;;;;;;18.45;8.98;;;18.10;99.90;;;;;;5035528;28;20664;-36
2022/05/18 02:58:38;;;;;;;16.13;8.52;;;18.20;99.90;;;;;;5043949;28;20102;-36
2022/05/18 03:01:09;;;;;;;19.70;8.95;;;18.20;99.90;;;;;;5034975;28;20029;-37
2022/05/18 03:03:35;;;;;;;19.02;9.02;;;18.10;99.90;;;;;;5047117;28;20539;-36
2022/05/18 03:06:03;;;;;;;15.68;8.75;;;18.10;99.90;;;;;;5040109;28;20030;-37
2022/05/18 03:08:31;;;;;;;17.48;10.00;;;18.10;99.90;;;;;;5031634;28;20112;-36
2022/05/18 03:10:56;;;;;;;18.92;9.73;;;18.10;99.90;;;;;;5033012;28;20018;-37
2022/05/18 03:13:22;;;;;;;20.40;10.20;;;18.20;99.90;;;;;;5035638;28;20051;-41
2022/05/18 03:15:48;;;;;;;18.77;10.25;;;18.20;99.90;;;;;;5052925;28;20017;-36
2022/05/18 03:18:14;;;;;;;13.93;9.82;;;18.20;99.90;;;;;;5032429;28;20053;-36
2022/05/18 03:23:35;;;;;;;21.75;10.55;;;18.20;99.90;;;;;;5040034;28;20099;-28
2022/05/18 03:26:11;;;;;;;18.55;9.10;;;18.10;99.90;;;;;;5040419;28;20033;-28
2022/05/18 03:28:39;;;;;;;15.75;10.13;;;18.10;99.90;;;;;;5039241;28;20032;-29
2022/05/18 03:31:05;;;;;;;;;;;18.10;99.90;;;;;;5052293;28;20077;-29
2022/05/18 03:33:30;;;;;;;15.30;9.02;;;18.20;99.90;;;;;;5051564;28;20361;-27
2022/05/18 03:35:56;;;;;;;14.95;9.18;;;18.20;99.90;;;;;;5040963;28;20076;-30
2022/05/18 03:38:22;;;;;;;14.18;8.80;;;18.20;99.90;;;;;;5036070;28;20116;-29
2022/05/18 03:40:48;;;;;;;16.33;10.57;;;18.20;99.90;;;;;;5041636;28;20029;-29
2022/05/18 03:43:15;;;;;;;23.35;10.23;;;18.30;99.90;;;;;;5052967;28;20095;-31
2022/05/18 03:45:41;;;;;;;28.08;9.75;;;18.30;99.90;;;;;;5052577;28;20029;-29
2022/05/18 03:48:08;;;;;;;17.67;9.60;;;18.40;99.90;;;;;;5036012;28;20527;-33
2022/05/18 03:50:37;;;;;;;13.27;8.80;;;18.40;99.90;;;;;;5050997;28;20066;-46
2022/05/18 03:53:03;;;;;;;16.92;10.75;;;18.40;99.90;;;;;;5048116;28;20492;-32
2022/05/18 03:55:30;;;;;;;16.03;10.00;;;18.30;99.90;;;;;;5045893;28;20021;-36
2022/05/18 03:57:55;;;;;;;18.17;10.60;;;18.30;99.90;;;;;;5054296;28;20147;-36
2022/05/18 04:00:22;;;;;;;14.70;9.55;;;18.20;99.90;;;;;;5036386;28;20104;-36
2022/05/18 04:02:47;;;;;;;18.55;10.00;;;18.20;99.90;;;;;;5035826;28;20049;-37
2022/05/18 04:05:15;;;;;;;16.55;10.23;;;18.20;99.90;;;;;;5040028;28;20053;-41
2022/05/18 04:07:41;;;;;;;24.02;9.88;;;18.30;99.90;;;;;;5053786;28;20024;-37
2022/05/18 04:10:08;;;;;;;16.27;9.55;;;18.40;99.90;;;;;;5043343;28;20079;-36
2022/05/18 04:12:34;;;;;;;14.85;9.43;;;18.40;99.90;;;;;;5041403;28;20020;-36
2022/05/18 04:15:01;;;;;;;18.20;9.88;;;18.40;99.90;;;;;;5042098;28;20160;-37
2022/05/18 04:17:26;;;;;;;17.00;9.55;;;18.40;99.90;;;;;;5040739;28;20045;-37
2022/05/18 04:19:53;;;;;;;19.85;10.07;;;18.40;99.90;;;;;;5035821;28;20029;-36
2022/05/18 04:22:19;;;;;;;16.50;9.30;;;18.30;99.90;;;;;;5050771;28;20465;-35
2022/05/18 04:24:44;;;;;;;16.55;8.68;;;18.20;99.90;;;;;;5038552;28;20036;-36
2022/05/18 04:27:12;;;;;;;16.58;8.55;;;18.10;99.90;;;;;;5053733;28;20024;-35
2022/05/18 04:29:39;;;;;;;19.02;8.93;;;18.10;99.90;;;;;;5045071;28;20108;-36
2022/05/18 04:32:06;;;;;;;20.05;8.38;;;18.10;99.90;;;;;;5037078;28;20049;-35
2022/05/18 04:34:31;;;;;;;17.48;9.65;;;18.10;99.90;;;;;;5044272;28;20051;-36
2022/05/18 04:36:57;;;;;;;15.30;8.85;;;18.20;99.90;;;;;;5055677;28;20057;-37
2022/05/18 04:39:22;;;;;;;16.80;9.48;;;18.20;99.90;;;;;;5048171;28;20021;-40
2022/05/18 04:41:48;;;;;;;20.27;9.38;;;18.20;99.90;;;;;;5035066;28;20033;-36
2022/05/18 04:44:14;;;;;;;15.07;9.45;;;18.20;99.90;;;;;;5054538;28;20060;-38
2022/05/18 04:46:40;;;;;;;20.20;11.35;;;18.30;99.90;;;;;;5040290;28;20414;-29
2022/05/18 04:49:06;;;;;;;15.65;9.63;;;18.30;99.90;;;;;;5035779;28;20041;-31
2022/05/18 04:51:32;;;;;;;17.90;10.25;;;18.40;99.90;;;;;;5041628;28;20470;-30
2022/05/18 04:53:57;;;;;;;22.02;11.57;;;18.40;99.90;;;;;;5035367;28;20034;-31
2022/05/18 04:56:24;;;;;;;21.85;12.68;;;18.50;99.90;;;;;;5035386;28;20033;-28
2022/05/18 04:58:50;;;;;;;20.40;12.77;;;18.50;99.90;;;;;;5037733;28;20017;-28
2022/05/18 05:01:16;;;;;;;25.25;14.05;;;18.50;99.90;;;;;;5048936;28;20095;-30
2022/05/18 05:03:42;;;;;;;27.13;15.82;;;18.60;99.90;;;;;;5053784;28;20025;-27
2022/05/18 05:06:07;;;;;;;24.00;14.13;;;18.70;99.90;;;;;;5039836;28;20036;-31
2022/05/18 05:08:34;;;;;;;23.25;14.73;;;18.70;99.90;;;;;;5050045;28;20056;-33
2022/05/18 05:11:00;;;;;;;26.35;14.90;;;18.80;99.90;;;;;;5045472;28;20025;-30
2022/05/18 05:13:26;;;;;;;23.50;14.23;;;19.00;99.90;;;;;;5045472;28;20054;-31
2022/05/18 05:15:59;;;;;;;30.92;14.93;;;19.10;99.90;;;;;;5037200;28;20025;-30
2022/05/18 05:18:25;;;;;;;27.15;15.02;;;19.20;99.90;;;;;;5042538;28;20029;-31
2022/05/18 05:20:50;;;;;;;19.52;12.23;;;19.30;99.90;;;;;;5035519;28;20071;-28
2022/05/18 05:23:16;;;;;;;21.30;12.68;;;19.40;99.90;;;;;;5034276;28;20021;-30
2022/05/18 05:25:42;;;;;;;24.40;12.15;;;19.50;99.90;;;;;;5035072;28;20041;-32
2022/05/18 05:28:09;;;;;;;20.15;12.07;;;19.60;99.90;;;;;;5034215;28;20075;-30
2022/05/18 05:30:34;;;;;;;18.65;12.38;;;19.70;99.90;;;;;;5039821;28;20049;-34
2022/05/18 05:33:00;;;;;;;21.13;13.18;;;19.80;99.90;;;;;;5047226;28;20359;-28
2022/05/18 05:35:25;;;;;;;22.10;11.85;;;19.80;99.90;;;;;;5034627;28;20022;-28
2022/05/18 05:37:51;;;;;;;23.25;13.02;;;19.90;99.90;;;;;;5034608;28;20065;-28
2022/05/18 05:40:17;;;;;;;17.42;11.57;;;20.00;99.90;;;;;;5044273;28;20112;-34
2022/05/18 05:42:42;;;;;;;19.90;13.20;;;20.20;99.90;;;;;;5049758;28;20017;-29
2022/05/18 05:45:09;;;;;;;19.73;12.23;;;20.30;99.90;;;;;;5038486;28;20155;-30
2022/05/18 05:47:34;;;;;;;25.90;12.75;;;20.40;99.90;;;;;;5036219;28;20034;-30
2022/05/18 05:50:00;;;;;;;18.08;12.18;;;20.50;99.90;;;;;;5037474;28;20033;-31
2022/05/18 05:52:26;;;;;;;19.73;11.70;;;20.60;99.90;;;;;;5048408;28;20025;-28
2022/05/18 05:54:51;;;;;;;15.40;9.95;;;20.60;99.90;;;;;;5033627;28;20025;-29
2022/05/18 05:57:17;;;;;;;19.23;11.00;;;20.70;99.90;;;;;;5049113;28;20560;-34
2022/05/18 05:59:42;;;;;;;23.98;13.07;;;20.70;99.90;;;;;;5043340;28;20120;-31
2022/05/18 06:02:11;;;;;;;24.30;11.02;;;20.70;99.90;;;;;;5033814;28;20504;-29
2022/05/18 06:04:38;;;;;;;18.85;11.38;;;20.70;99.90;;;;;;5037966;28;20025;-29
2022/05/18 06:07:04;;;;;;;18.02;11.18;;;20.80;99.90;;;;;;5042772;28;20025;-31
2022/05/18 06:09:30;;;;;;;16.77;11.10;;;20.80;99.90;;;;;;5045513;28;20060;-31
2022/05/18 06:11:56;;;;;;;19.35;10.70;;;20.90;99.90;;;;;;5051607;28;20055;-35
2022/05/18 06:14:21;;;;;;;20.25;12.02;;;20.90;99.90;;;;;;5053456;28;20521;-29
2022/05/18 06:16:47;;;;;;;20.33;11.60;;;20.90;99.90;;;;;;5034174;28;20486;-29
2022/05/18 06:19:14;;;;;;;22.73;12.13;;;20.90;99.90;;;;;;5031893;28;20033;-29
2022/05/18 06:21:40;;;;;;;23.27;11.13;;;21.00;99.90;;;;;;5043785;28;20481;-31
2022/05/18 06:24:06;;;;;;;23.58;12.80;;;21.00;99.90;;;;;;5044155;28;20030;-30
2022/05/18 06:26:32;;;;;;;22.42;12.77;;;21.10;99.90;;;;;;5041040;28;20112;-31
2022/05/18 06:28:58;;;;;;;24.45;13.30;;;21.10;99.90;;;;;;5033792;28;20097;-28
2022/05/18 06:31:23;;;;;;;23.67;12.18;;;21.10;99.90;;;;;;5045526;28;20552;-31
2022/05/18 06:33:50;;;;;;;22.92;12.52;;;21.10;99.90;;;;;;5044017;28;20021;-33
2022/05/18 06:36:15;;;;;;;21.42;12.02;;;21.20;99.90;;;;;;5049862;28;20373;-31
2022/05/18 06:38:42;;;;;;;25.42;13.15;;;21.30;99.90;;;;;;5052772;28;20044;-30
2022/05/18 06:41:22;;;;;;;26.30;12.93;;;21.40;99.90;;;;;;5042254;28;20095;-31
2022/05/18 06:43:54;;;;;;;22.20;11.68;;;21.50;99.90;;;;;;5036082;28;20549;-36
2022/05/18 06:46:21;;;;;;;21.67;12.15;;;21.60;99.90;;;;;;5048782;28;20465;-30
2022/05/18 06:48:48;;;;;;;20.98;13.18;;;21.60;99.90;;;;;;5047662;28;20495;-28
2022/05/18 06:51:19;;;;;;;19.98;12.15;;;21.70;99.90;;;;;;5046315;28;20033;-32
2022/05/18 06:53:45;;;;;;;16.30;11.55;;;22.10;99.90;;;;;;5042946;28;20025;-37
2022/05/18 06:56:11;;;;;;;25.77;12.02;;;23.60;99.90;;;;;;5045846;28;20076;-30
2022/05/18 06:58:37;;;;;;;20.80;12.07;;;24.40;99.90;;;;;;5047811;28;20021;-33
2022/05/18 07:01:06;;;;;;;21.08;12.00;;;24.20;99.90;;;;;;5046907;28;20104;-41
2022/05/18 07:03:31;;;;;;;22.10;12.20;;;24.30;99.90;;;;;;5040312;28;20477;-28
2022/05/18 07:05:57;;;;;;;19.08;11.82;;;24.10;99.90;;;;;;5033545;28;20057;-33
2022/05/18 07:08:23;;;;;;;25.75;12.50;;;23.90;99.90;;;;;;5037206;28;20032;-32
2022/05/18 07:10:49;;;;;;;26.90;11.98;;;24.40;99.90;;;;;;5032814;28;20040;-31
2022/05/18 07:13:17;;;;;;;19.55;11.75;;;25.10;99.90;;;;;;5032512;28;20421;-33
2022/05/18 07:15:44;;;;;;;21.52;13.43;;;25.50;99.90;;;;;;5040283;28;20075;-32
2022/05/18 07:18:10;;;;;;;;;;;25.50;99.90;;;;;;5033945;28;20029;-28
2022/05/18 07:20:35;;;;;;;21.75;11.88;;;25.10;99.90;;;;;;5029082;28;19916;-36
2022/05/18 07:23:01;;;;;;;18.15;10.30;;;25.00;99.90;;;;;;5044151;28;20033;-31
2022/05/18 07:25:27;;;;;;;17.23;10.55;;;24.70;99.90;;;;;;5030934;28;20383;-31
2022/05/18 07:27:53;;;;;;;18.88;11.18;;;24.20;99.90;;;;;;5045489;28;20099;-30
2022/05/18 07:30:18;;;;;;;18.92;10.88;;;23.50;99.90;;;;;;5054939;28;20056;-30
2022/05/18 07:32:44;;;;;;;18.00;10.75;;;23.00;99.90;;;;;;5056828;28;20033;-30
2022/05/18 07:35:10;;;;;;;24.58;10.48;;;22.70;99.90;;;;;;5052651;28;20017;-29
2022/05/18 07:37:36;;;;;;;15.75;8.55;;;22.90;99.90;;;;;;5040156;28;20064;-32
2022/05/18 07:40:03;;;;;;;11.40;7.45;;;23.20;99.90;;;;;;5042714;28;20017;-31
2022/05/18 07:42:28;;;;;;;11.57;7.25;;;23.40;99.90;;;;;;5033550;28;20520;-33
2022/05/18 07:44:54;;;;;;;10.20;6.78;;;23.70;99.90;;;;;;5030922;28;20025;-31
2022/05/18 07:47:31;;;;;;;15.00;6.45;;;23.80;99.90;;;;;;5035839;28;20519;-37
2022/05/18 07:49:57;;;;;;;11.48;5.93;;;23.70;99.90;;;;;;5039467;28;20528;-36
2022/05/18 07:52:22;;;;;;;11.50;6.55;;;23.60;99.90;;;;;;5045402;28;20033;-28
2022/05/18 07:54:48;;;;;;;10.98;6.00;;;23.40;99.90;;;;;;5032856;28;20021;-30
2022/05/18 07:57:15;;;;;;;9.85;6.20;;;23.40;99.90;;;;;;5042030;28;20052;-30
2022/05/18 07:59:41;;;;;;;11.07;6.10;;;23.30;99.90;;;;;;5043487;28;20032;-29
2022/05/18 08:02:06;;;;;;;7.68;4.78;;;23.40;99.90;;;;;;5052360;28;20481;-31
2022/05/18 08:04:32;;;;;;;8.75;4.53;;;23.70;99.90;;;;;;5040657;28;20076;-35
2022/05/18 08:06:57;;;;;;;16.13;4.75;;;24.00;99.90;;;;;;5028475;28;20021;-32
2022/05/18 08:09:23;;;;;;;7.00;4.95;;;24.20;99.90;;;;;;5026140;28;20063;-29
2022/05/18 08:17:19;;;;;;;8.00;4.85;;;25.20;99.90;;;;;;5033142;28;20043;-29
2022/05/18 08:19:44;;;;;;;13.07;4.90;;;25.30;99.90;;;;;;5032040;28;20026;-35
2022/05/18 08:22:10;;;;;;;8.82;4.63;;;25.30;99.90;;;;;;5030301;28;20438;-33
2022/05/18 08:24:36;;;;;;;11.48;4.22;;;25.40;99.90;;;;;;5030785;28;20492;-33
2022/05/18 08:27:10;;;;;;;10.43;4.53;;;25.00;99.90;;;;;;5032452;28;20060;-32
2022/05/18 08:29:36;;;;;;;8.02;4.60;;;24.90;99.90;;;;;;5029861;28;20122;-33
2022/05/18 08:32:04;;;;;;;11.90;4.13;;;24.90;99.90;;;;;;5037430;28;20508;-32
2022/05/18 08:34:30;;;;;;;13.00;5.32;;;25.00;99.90;;;;;;5032009;28;20025;-30
2022/05/18 08:36:56;;;;;;;8.90;4.30;;;25.00;99.90;;;;;;5034735;28;20021;-38
2022/05/18 08:39:21;;;;;;;7.20;4.82;;;25.10;99.90;;;;;;5028889;28;20029;-35
2022/05/18 08:41:49;;;;;;;8.27;4.15;;;25.00;99.90;;;;;;5030286;28;20358;-34
2022/05/18 08:44:32;;;;;;;7.03;4.25;;;25.10;99.90;;;;;;5032717;28;20025;-32
2022/05/18 08:47:19;;;;;;;9.48;5.10;;;25.50;99.90;;;;;;5034853;28;20036;-33
2022/05/18 08:50:14;;;;;;;10.25;5.45;;;25.40;99.90;;;;;;5032026;28;20528;-39
2022/05/18 08:52:50;;;;;;;7.00;4.50;;;25.20;99.90;;;;;;5031913;28;20036;-33
2022/05/18 08:55:48;;;;;;;8.75;5.78;;;24.80;99.90;;;;;;5028006;28;20036;-37
2022/05/18 08:58:38;;;;;;;10.10;5.85;;;24.80;99.90;;;;;;5030885;28;20470;-30
2022/05/18 09:01:12;;;;;;;10.98;6.30;;;24.60;99.90;;;;;;5030846;28;20498;-30
2022/05/18 09:04:00;;;;;;;12.50;6.20;;;24.20;99.90;;;;;;5027971;28;20115;-39
2022/05/18 09:06:31;;;;;;;14.90;6.38;;;23.70;99.90;;;;;;5029065;28;20115;-32
2022/05/18 09:12:01;;;;;;;14.40;6.60;;;23.80;99.90;;;;;;5028921;28;20755;-28
2022/05/18 09:14:32;;;;;;;8.95;6.30;;;23.80;99.90;;;;;;5029653;28;20583;-36
2022/05/18 09:17:23;;;;;;;13.43;6.88;;;23.40;99.90;;;;;;5029735;28;20040;-31
2022/05/18 09:19:59;;;;;;;14.68;7.13;;;23.40;99.90;;;;;;5024910;28;20028;-31
2022/05/18 09:23:02;;;;;;;14.65;8.10;;;23.70;99.90;;;;;;5028569;28;20103;-31
2022/05/18 09:25:39;;;;;;;19.27;7.50;;;23.30;99.90;;;;;;5026406;28;20064;-37
2022/05/18 09:28:14;;;;;;;13.18;7.53;;;23.20;99.90;;;;;;5027697;28;20096;-31
2022/05/18 09:31:17;;;;;;;14.48;6.50;;;23.20;99.90;;;;;;5028254;28;20045;-34
2022/05/18 09:34:06;;;;;;;12.60;7.13;;;23.50;99.90;;;;;;5027510;28;20481;-38
2022/05/18 09:36:51;;;;;;;19.95;8.10;;;23.60;99.90;;;;;;5027986;28;20130;-36
2022/05/18 09:39:21;;;;;;;9.82;6.68;;;23.40;99.90;;;;;;5028429;28;20029;-29
2022/05/18 09:41:48;;;;;;;23.23;9.45;;;23.50;99.90;;;;;;5029836;28;20148;-29
2022/05/18 09:44:21;;;;;;;13.57;6.63;;;23.50;99.90;;;;;;5028649;28;20036;-31
2022/05/18 09:46:47;;;;;;;19.00;7.50;;;23.70;99.90;;;;;;5028380;28;20745;-31
2022/05/18 09:49:38;;;;;;;12.45;7.32;;;23.90;99.90;;;;;;5025107;28;20039;-42
2022/05/18 09:52:05;;;;;;;16.17;7.90;;;23.90;99.90;;;;;;5029068;28;20545;-31
2022/05/18 09:54:33;;;;;;;19.33;8.88;;;23.70;99.90;;;;;;5025653;28;20654;-30
2022/05/18 09:57:06;;;;;;;16.98;8.18;;;23.40;99.90;;;;;;5023586;28;20034;-42
2022/05/18 09:59:38;;;;;;;14.75;8.25;;;23.40;99.90;;;;;;5031037;28;20092;-53
2022/05/18 10:07:51;;;;;;;20.73;7.60;;;24.30;99.90;;;;;;5026801;28;20047;-37
2022/05/18 10:10:20;;;;;;;11.70;6.80;;;24.40;99.90;;;;;;5029029;28;20477;-32
2022/05/18 10:12:54;;;;;;;19.20;8.05;;;24.60;99.90;;;;;;5029269;28;21466;-38
2022/05/18 10:15:25;;;;;;;12.10;6.85;;;24.70;99.90;;;;;;5026795;28;20106;-37
2022/05/18 10:17:57;;;;;;;12.15;7.57;;;24.90;99.90;;;;;;5027236;28;20493;-37
2022/05/18 10:20:34;;;;;;;14.15;8.30;;;24.70;99.90;;;;;;5028885;28;20029;-36
2022/05/18 10:23:01;;;;;;;15.48;8.43;;;24.60;99.90;;;;;;5026456;28;21318;-38
2022/05/18 10:25:30;;;;;;;12.43;7.25;;;24.60;99.90;;;;;;5032296;28;20035;-39
2022/05/18 10:27:56;;;;;;;15.75;7.72;;;24.50;99.90;;;;;;5027242;28;20032;-36
2022/05/18 10:30:32;;;;;;;16.20;6.72;;;24.30;99.90;;;;;;5025620;28;20051;-36
2022/05/18 10:33:05;;;;;;;19.45;7.05;;;24.40;99.90;;;;;;5029546;28;20469;-36
2022/05/18 10:35:47;;;;;;;13.40;7.47;;;24.60;99.90;;;;;;5029307;28;20021;-38
2022/05/18 10:38:16;;;;;;;10.73;7.43;;;25.30;99.90;;;;;;5023287;28;20045;-36
2022/05/18 10:40:41;;;;;;;13.88;6.93;;;25.30;99.90;;;;;;5023992;28;20653;-33
2022/05/18 10:43:16;;;;;;;15.32;6.82;;;25.30;99.90;;;;;;5023222;28;20526;-35
2022/05/18 10:45:43;;;;;;;14.75;6.88;;;24.80;99.90;;;;;;5028352;28;20087;-31
2022/05/18 10:48:18;;;;;;;14.23;6.20;;;24.70;99.90;;;;;;5030119;28;20241;-36
2022/05/18 10:50:45;;;;;;;9.60;7.00;;;24.20;99.90;;;;;;5029732;28;20478;-43
2022/05/18 10:53:13;;;;;;;17.70;7.65;;;24.00;99.90;;;;;;5039439;28;20401;-37
2022/05/18 10:55:58;;;;;;;9.02;5.88;;;24.00;99.90;;;;;;5038724;28;20029;-37
2022/05/18 10:58:27;;;;;;;10.98;6.22;;;23.60;99.90;;;;;;5039634;28;20116;-36
2022/05/18 11:01:01;;;;;;;14.18;5.97;;;23.70;99.90;;;;;;5033539;28;20083;-37
2022/05/18 11:03:43;;;;;;;10.38;6.90;;;23.80;99.90;;;;;;5034875;28;20500;-36
2022/05/18 11:06:20;;;;;;;12.98;5.53;;;24.00;99.90;;;;;;5032491;28;20044;-37
2022/05/18 11:08:47;;;;;;;20.10;8.07;;;24.10;99.90;;;;;;5050409;28;20017;-44
2022/05/18 11:11:37;;;;;;;15.98;7.22;;;24.10;99.90;;;;;;5041073;28;20021;-36
2022/05/18 11:14:06;;;;;;;18.52;7.35;;;24.10;99.90;;;;;;5028425;28;20549;-35
2022/05/18 11:16:45;;;;;;;14.95;6.63;;;24.00;99.90;;;;;;5039377;28;20523;-31
2022/05/18 11:19:29;;;;;;;17.52;7.35;;;24.10;99.90;;;;;;5042954;28;20029;-38
2022/05/18 11:22:30;;;;;;;14.35;6.03;;;24.10;99.90;;;;;;5025639;28;20117;-32
2022/05/18 11:25:37;;;;;;;14.73;6.85;;;24.00;99.90;;;;;;5021684;28;20045;-38
2022/05/18 11:28:33;;;;;;;20.55;7.93;;;23.80;99.90;;;;;;5026195;28;20501;-36
2022/05/18 11:31:02;;;;;;;14.77;8.23;;;23.60;99.90;;;;;;5025881;28;20049;-38
2022/05/18 11:33:39;;;;;;;16.15;7.28;;;23.40;99.90;;;;;;5025787;28;20048;-33
2022/05/18 11:36:25;;;;;;;15.45;6.53;;;23.20;99.90;;;;;;5025777;28;20501;-32
2022/05/18 11:39:30;;;;;;;10.52;5.80;;;23.40;99.90;;;;;;5029308;28;20025;-31
2022/05/18 11:42:04;;;;;;;10.32;6.07;;;23.80;99.90;;;;;;5042542;28;20037;-29
2022/05/18 11:44:59;;;;;;;14.38;6.30;;;24.10;99.90;;;;;;5035607;28;20025;-31
2022/05/18 11:47:38;;;;;;;10.43;5.97;;;24.10;99.90;;;;;;5028322;28;20510;-32
2022/05/18 11:50:10;;;;;;;9.05;5.80;;;24.40;99.90;;;;;;5040558;28;20083;-41
2022/05/18 11:52:54;;;;;;;14.93;6.38;;;24.80;99.90;;;;;;5038444;28;20039;-35
2022/05/18 11:55:28;;;;;;;12.07;5.88;;;24.60;99.90;;;;;;5037398;28;20033;-31
2022/05/18 11:58:43;;;;;;;9.32;5.53;;;24.30;99.90;;;;;;5035788;28;20025;-34
2022/05/18 12:01:37;;;;;;;13.00;5.85;;;24.40;99.90;;;;;;5032283;28;20150;-35
2022/05/18 12:04:21;;;;;;;11.40;5.38;;;24.60;99.90;;;;;;5028036;28;20021;-31
2022/05/18 12:07:07;;;;;;;11.82;6.05;;;24.70;99.90;;;;;;5028222;28;20026;-33
2022/05/18 12:09:51;;;;;;;8.60;5.28;;;24.60;99.90;;;;;;5032286;28;20513;-31
2022/05/18 12:12:47;;;;;;;7.53;4.85;;;24.60;99.90;;;;;;5032211;28;20065;-35
2022/05/18 12:15:18;;;;;;;11.67;5.50;;;25.00;99.90;;;;;;5046213;28;20029;-33
2022/05/18 12:17:58;;;;;;;12.60;5.40;;;25.40;99.90;;;;;;5046188;28;20493;-32
2022/05/18 12:20:58;;;;;;;6.25;5.00;;;25.50;99.90;;;;;;5045366;28;20028;-37
2022/05/18 12:23:29;;;;;;;14.52;5.47;;;25.60;99.90;;;;;;5039234;28;20029;-37
2022/05/18 12:25:56;;;;;;;7.65;4.93;;;25.30;99.90;;;;;;5032494;28;20419;-36
2022/05/18 12:28:23;;;;;;;7.45;4.53;;;25.20;99.90;;;;;;5034000;28;20029;-39
2022/05/18 12:30:50;;;;;;;8.95;4.70;;;25.20;99.90;;;;;;5033791;28;20041;-42
2022/05/18 12:33:19;;;;;;;7.20;4.03;;;25.40;99.90;;;;;;5031964;28;20025;-32
2022/05/18 12:35:50;;;;;;;7.50;4.60;;;25.70;99.90;;;;;;5031675;28;20793;-36
2022/05/18 12:38:47;;;;;;;7.65;4.28;;;25.70;99.90;;;;;;5029096;28;20044;-38
2022/05/18 12:41:13;;;;;;;9.35;4.18;;;25.70;99.90;;;;;;5018430;28;20397;-30
2022/05/18 12:43:40;;;;;;;20.17;4.88;;;25.90;99.90;;;;;;5038470;28;20503;-34
2022/05/18 12:46:22;;;;;;;6.95;4.50;;;25.80;99.90;;;;;;5033008;28;20481;-30
2022/05/18 12:48:58;;;;;;;7.20;4.00;;;25.60;99.90;;;;;;5031569;28;20060;-30
2022/05/18 12:51:27;;;;;;;9.35;5.60;;;25.70;99.90;;;;;;5029815;28;20080;-30
2022/05/18 12:54:11;;;;;;;7.25;4.85;;;25.40;99.90;;;;;;5030925;28;20489;-32
2022/05/18 12:56:36;;;;;;;8.48;4.75;;;25.40;99.90;;;;;;5028988;28;20030;-33
2022/05/18 12:59:16;;;;;;;10.32;5.07;;;25.30;99.90;;;;;;5031825;28;20056;-35
2022/05/18 13:01:45;;;;;;;9.20;3.92;;;25.50;99.90;;;;;;5029726;28;20482;-35
2022/05/18 13:04:10;;;;;;;8.60;4.43;;;25.60;99.90;;;;;;5028711;28;20029;-34
2022/05/18 13:06:36;;;;;;;11.65;5.10;;;25.50;99.90;;;;;;5033330;28;20029;-36
2022/05/18 13:09:20;;;;;;;7.03;4.80;;;25.40;99.90;;;;;;5028432;28;20021;-34